Main page
METAR-TAF:

METAR-TAF

Airports :

Casablanca–Anfa Airport

Casablanca, Morocco

latitude: 33-34N, longitude: 007-40W, elevation: 62 m

Current weather observation

The report was made 1 hour and 14 minutes ago, at 15:00 UTC
Wind 10 kt from the West/Northwest
Temperature 21°C
Humidity 64%
Pressure 1018 hPa
Visibility: 8000 m

METAR: GMMC 231500Z 30010KT 8000 NSC 21/14 Q1018

Time: 17:14 (16:14 UTC)


TAF: missing

Weather observations and forecasts of more than 4000 airports (METAR and TAF reports).

The available stations are represented by yellow and red dots on the map.

Hover mouse over dot to see the name of the station.

Then click to see weather observations and forecasts.

To change the map : click on the green buttons with a black cross to zoom in, on the green button with a dash to zoom out, or on the green arrows for adjacent maps.


METAR-TAF: